Skip Navigation Links Skip Navigation Links

Current Weather

Greater Rockford, Rockford, Ill.

For information only: do not use for flight planning or navigation.
Latest weather
Observation time Tuesday, September 17, 2019 1:54 AM CDT
Local time Tuesday, September 17, 2019 2:06 AM CDT
Flight conditions Low Instrument Meteorological Conditions
Winds
Wind direction East-Southeast (110°)
Wind speed 3 mph
Visibility 1 mi.
Present weather mist
Sky condition
Ceiling 300 ft. overcast
Cloud layer overcast 300 ft.
Temperature 62°F
Dewpoint 61°F
Altimeter 30.16 in.Hg
Derived measurements
Relative humidity 96%
Density altitude 921 ft.
Sea-level pressure 30.15 in.Hg
Remarks
Automated weather observing station with precipitation discriminator.
METAR KRFD 170654Z 11003KT 1SM R01/5000VP6000FT BR OVC003 17/16 A3016 RMK AO2 SLP209 T01670161

Settings

Location code

InnerDrive.Weather 4.0.6770.0 Release CLR 4.0.30319.42000
Copyright ©2018 Inner Drive Technology. All rights reserved. Portions Copyright ©1986-2018 David Braverman.

Find weather

Site navigation


Skip Navigation Links

Place info

Page info

PayPal - The safer, easier way to pay online!

Return home.

Copyright ©2019 Inner Drive Technology. Purveyors of fine, hand-crafted computer software. Page printed 2019-09-17T07:06:07 UTC.